sensor_id;sensor_type;location;lat;lon;timestamp;P1;durP1;ratioP1;P2;durP2;ratioP2
71207;SDS011;58938;49.868;8.646;2023-12-20T00:01:35;12.15;;;6.00;;
71207;SDS011;58938;49.868;8.646;2023-12-20T00:04:01;10.20;;;5.35;;
71207;SDS011;58938;49.868;8.646;2023-12-20T00:06:27;10.55;;;5.45;;
71207;SDS011;58938;49.868;8.646;2023-12-20T00:08:53;12.85;;;6.45;;
71207;SDS011;58938;49.868;8.646;2023-12-20T00:11:19;13.47;;;6.00;;
71207;SDS011;58938;49.868;8.646;2023-12-20T00:13:45;11.93;;;6.00;;
71207;SDS011;58938;49.868;8.646;2023-12-20T00:16:11;8.93;;;4.80;;
71207;SDS011;58938;49.868;8.646;2023-12-20T00:18:37;10.32;;;5.32;;
71207;SDS011;58938;49.868;8.646;2023-12-20T00:21:03;8.23;;;3.87;;
71207;SDS011;58938;49.868;8.646;2023-12-20T00:23:29;10.27;;;5.70;;
71207;SDS011;58938;49.868;8.646;2023-12-20T00:25:55;10.65;;;5.20;;
71207;SDS011;58938;49.868;8.646;2023-12-20T00:28:21;9.43;;;4.97;;
71207;SDS011;58938;49.868;8.646;2023-12-20T00:30:47;8.57;;;4.30;;
71207;SDS011;58938;49.868;8.646;2023-12-20T00:33:13;9.85;;;4.97;;
71207;SDS011;58938;49.868;8.646;2023-12-20T00:35:39;9.65;;;5.07;;
71207;SDS011;58938;49.868;8.646;2023-12-20T00:38:06;9.52;;;4.72;;
71207;SDS011;58938;49.868;8.646;2023-12-20T00:40:33;8.57;;;4.27;;
71207;SDS011;58938;49.868;8.646;2023-12-20T00:42:59;10.25;;;4.80;;
71207;SDS011;58938;49.868;8.646;2023-12-20T00:45:25;10.20;;;5.30;;
71207;SDS011;58938;49.868;8.646;2023-12-20T00:47:51;10.10;;;4.65;;
71207;SDS011;58938;49.868;8.646;2023-12-20T00:50:17;11.77;;;5.32;;
71207;SDS011;58938;49.868;8.646;2023-12-20T00:52:43;8.83;;;4.50;;
71207;SDS011;58938;49.868;8.646;2023-12-20T00:55:09;9.32;;;5.00;;
71207;SDS011;58938;49.868;8.646;2023-12-20T00:57:35;9.43;;;4.82;;
71207;SDS011;58938;49.868;8.646;2023-12-20T01:00:01;8.73;;;4.93;;
71207;SDS011;58938;49.868;8.646;2023-12-20T01:02:30;8.63;;;4.40;;
71207;SDS011;58938;49.868;8.646;2023-12-20T01:04:55;8.43;;;4.63;;
71207;SDS011;58938;49.868;8.646;2023-12-20T01:07:21;8.02;;;4.95;;
71207;SDS011;58938;49.868;8.646;2023-12-20T01:09:47;9.68;;;5.00;;
71207;SDS011;58938;49.868;8.646;2023-12-20T01:12:13;10.07;;;5.23;;
71207;SDS011;58938;49.868;8.646;2023-12-20T01:14:39;9.25;;;4.45;;
71207;SDS011;58938;49.868;8.646;2023-12-20T01:17:05;9.13;;;4.25;;
71207;SDS011;58938;49.868;8.646;2023-12-20T01:19:31;10.17;;;4.60;;
71207;SDS011;58938;49.868;8.646;2023-12-20T01:21:57;9.10;;;5.47;;
71207;SDS011;58938;49.868;8.646;2023-12-20T01:24:23;8.93;;;4.90;;
71207;SDS011;58938;49.868;8.646;2023-12-20T01:26:49;8.30;;;4.60;;
71207;SDS011;58938;49.868;8.646;2023-12-20T01:29:15;8.47;;;5.10;;
71207;SDS011;58938;49.868;8.646;2023-12-20T01:31:41;8.70;;;4.30;;
71207;SDS011;58938;49.868;8.646;2023-12-20T01:34:07;9.20;;;4.82;;
71207;SDS011;58938;49.868;8.646;2023-12-20T01:36:33;7.20;;;3.85;;
71207;SDS011;58938;49.868;8.646;2023-12-20T01:38:59;7.87;;;4.73;;
71207;SDS011;58938;49.868;8.646;2023-12-20T01:41:25;9.32;;;4.32;;
71207;SDS011;58938;49.868;8.646;2023-12-20T01:43:51;6.85;;;3.67;;
71207;SDS011;58938;49.868;8.646;2023-12-20T01:46:18;8.48;;;4.72;;
71207;SDS011;58938;49.868;8.646;2023-12-20T01:48:44;7.45;;;4.40;;
71207;SDS011;58938;49.868;8.646;2023-12-20T01:51:10;8.37;;;4.63;;
71207;SDS011;58938;49.868;8.646;2023-12-20T01:53:36;7.28;;;4.20;;
71207;SDS011;58938;49.868;8.646;2023-12-20T01:56:03;9.90;;;4.00;;
71207;SDS011;58938;49.868;8.646;2023-12-20T01:58:30;6.75;;;3.63;;
71207;SDS011;58938;49.868;8.646;2023-12-20T02:00:56;7.93;;;3.63;;
71207;SDS011;58938;49.868;8.646;2023-12-20T02:03:23;10.80;;;4.15;;
71207;SDS011;58938;49.868;8.646;2023-12-20T02:05:51;7.28;;;4.10;;
71207;SDS011;58938;49.868;8.646;2023-12-20T02:08:18;6.68;;;3.67;;
71207;SDS011;58938;49.868;8.646;2023-12-20T02:10:44;8.07;;;4.30;;
71207;SDS011;58938;49.868;8.646;2023-12-20T02:13:10;7.20;;;3.97;;
71207;SDS011;58938;49.868;8.646;2023-12-20T02:15:36;7.50;;;4.25;;
71207;SDS011;58938;49.868;8.646;2023-12-20T02:18:02;6.93;;;3.83;;
71207;SDS011;58938;49.868;8.646;2023-12-20T02:20:28;7.85;;;4.18;;
71207;SDS011;58938;49.868;8.646;2023-12-20T02:22:54;9.97;;;4.03;;
71207;SDS011;58938;49.868;8.646;2023-12-20T02:25:20;7.72;;;3.55;;
71207;SDS011;58938;49.868;8.646;2023-12-20T02:27:47;7.68;;;4.47;;
71207;SDS011;58938;49.868;8.646;2023-12-20T02:30:13;8.10;;;3.72;;
71207;SDS011;58938;49.868;8.646;2023-12-20T02:32:40;7.40;;;3.50;;
71207;SDS011;58938;49.868;8.646;2023-12-20T02:35:06;6.33;;;3.20;;
71207;SDS011;58938;49.868;8.646;2023-12-20T02:37:34;6.72;;;3.42;;
71207;SDS011;58938;49.868;8.646;2023-12-20T02:40:00;6.05;;;3.35;;
71207;SDS011;58938;49.868;8.646;2023-12-20T02:42:29;6.03;;;3.38;;
71207;SDS011;58938;49.868;8.646;2023-12-20T02:44:55;7.13;;;3.53;;
71207;SDS011;58938;49.868;8.646;2023-12-20T02:47:21;6.70;;;4.00;;
71207;SDS011;58938;49.868;8.646;2023-12-20T02:49:47;7.22;;;3.50;;
71207;SDS011;58938;49.868;8.646;2023-12-20T02:52:12;5.72;;;3.10;;
71207;SDS011;58938;49.868;8.646;2023-12-20T02:54:38;6.13;;;3.17;;
71207;SDS011;58938;49.868;8.646;2023-12-20T02:57:04;5.43;;;2.78;;
71207;SDS011;58938;49.868;8.646;2023-12-20T02:59:30;5.65;;;3.35;;
71207;SDS011;58938;49.868;8.646;2023-12-20T03:01:56;6.33;;;4.10;;
71207;SDS011;58938;49.868;8.646;2023-12-20T03:04:22;7.55;;;4.03;;
71207;SDS011;58938;49.868;8.646;2023-12-20T03:06:48;7.53;;;3.47;;
71207;SDS011;58938;49.868;8.646;2023-12-20T03:09:14;5.85;;;3.35;;
71207;SDS011;58938;49.868;8.646;2023-12-20T03:11:40;5.83;;;3.10;;
71207;SDS011;58938;49.868;8.646;2023-12-20T03:14:06;6.18;;;3.53;;
71207;SDS011;58938;49.868;8.646;2023-12-20T03:16:32;6.55;;;3.20;;
71207;SDS011;58938;49.868;8.646;2023-12-20T03:18:58;7.53;;;4.20;;
71207;SDS011;58938;49.868;8.646;2023-12-20T03:21:24;7.22;;;4.40;;
71207;SDS011;58938;49.868;8.646;2023-12-20T03:23:50;7.85;;;4.60;;
71207;SDS011;58938;49.868;8.646;2023-12-20T03:26:16;7.32;;;4.15;;
71207;SDS011;58938;49.868;8.646;2023-12-20T03:28:41;7.93;;;4.33;;
71207;SDS011;58938;49.868;8.646;2023-12-20T03:31:09;8.48;;;4.30;;
71207;SDS011;58938;49.868;8.646;2023-12-20T03:33:35;8.68;;;4.15;;
71207;SDS011;58938;49.868;8.646;2023-12-20T03:36:01;10.30;;;4.50;;
71207;SDS011;58938;49.868;8.646;2023-12-20T03:38:27;8.25;;;4.18;;
71207;SDS011;58938;49.868;8.646;2023-12-20T03:40:53;7.75;;;4.53;;
71207;SDS011;58938;49.868;8.646;2023-12-20T03:43:19;9.02;;;4.22;;
71207;SDS011;58938;49.868;8.646;2023-12-20T03:45:45;8.50;;;4.65;;
71207;SDS011;58938;49.868;8.646;2023-12-20T03:48:11;9.67;;;4.40;;
71207;SDS011;58938;49.868;8.646;2023-12-20T03:50:37;8.48;;;4.72;;
71207;SDS011;58938;49.868;8.646;2023-12-20T03:53:03;8.90;;;4.28;;
71207;SDS011;58938;49.868;8.646;2023-12-20T03:55:29;9.95;;;5.20;;
71207;SDS011;58938;49.868;8.646;2023-12-20T03:57:55;7.57;;;4.43;;
71207;SDS011;58938;49.868;8.646;2023-12-20T04:00:21;8.20;;;4.78;;
71207;SDS011;58938;49.868;8.646;2023-12-20T04:02:47;8.40;;;4.60;;
71207;SDS011;58938;49.868;8.646;2023-12-20T04:05:13;9.73;;;4.53;;
71207;SDS011;58938;49.868;8.646;2023-12-20T04:07:39;10.13;;;5.22;;
71207;SDS011;58938;49.868;8.646;2023-12-20T04:10:05;8.32;;;4.22;;
71207;SDS011;58938;49.868;8.646;2023-12-20T04:12:32;10.93;;;4.93;;
71207;SDS011;58938;49.868;8.646;2023-12-20T04:14:58;7.80;;;4.03;;
71207;SDS011;58938;49.868;8.646;2023-12-20T04:17:24;9.93;;;4.28;;
71207;SDS011;58938;49.868;8.646;2023-12-20T04:19:50;10.10;;;4.82;;
71207;SDS011;58938;49.868;8.646;2023-12-20T04:22:17;9.80;;;5.10;;
71207;SDS011;58938;49.868;8.646;2023-12-20T04:24:43;6.93;;;4.10;;
71207;SDS011;58938;49.868;8.646;2023-12-20T04:27:09;8.23;;;4.43;;
71207;SDS011;58938;49.868;8.646;2023-12-20T04:29:35;9.27;;;5.28;;
71207;SDS011;58938;49.868;8.646;2023-12-20T04:32:01;9.07;;;4.60;;
71207;SDS011;58938;49.868;8.646;2023-12-20T04:34:27;8.43;;;4.80;;
71207;SDS011;58938;49.868;8.646;2023-12-20T04:36:53;10.30;;;4.18;;
71207;SDS011;58938;49.868;8.646;2023-12-20T04:39:19;9.30;;;5.00;;
71207;SDS011;58938;49.868;8.646;2023-12-20T04:41:45;9.57;;;5.00;;
71207;SDS011;58938;49.868;8.646;2023-12-20T04:44:12;9.15;;;4.93;;
71207;SDS011;58938;49.868;8.646;2023-12-20T04:46:38;8.27;;;4.17;;
71207;SDS011;58938;49.868;8.646;2023-12-20T04:49:04;9.02;;;4.72;;
71207;SDS011;58938;49.868;8.646;2023-12-20T04:51:32;9.05;;;4.75;;
71207;SDS011;58938;49.868;8.646;2023-12-20T04:53:58;9.05;;;4.53;;
71207;SDS011;58938;49.868;8.646;2023-12-20T04:56:24;9.03;;;4.60;;
71207;SDS011;58938;49.868;8.646;2023-12-20T04:58:50;11.35;;;5.65;;
71207;SDS011;58938;49.868;8.646;2023-12-20T05:01:16;8.23;;;4.50;;
71207;SDS011;58938;49.868;8.646;2023-12-20T05:03:42;7.93;;;4.47;;
71207;SDS011;58938;49.868;8.646;2023-12-20T05:06:09;8.87;;;4.87;;
71207;SDS011;58938;49.868;8.646;2023-12-20T05:08:35;8.80;;;3.95;;
71207;SDS011;58938;49.868;8.646;2023-12-20T05:11:01;5.80;;;3.58;;
71207;SDS011;58938;49.868;8.646;2023-12-20T05:13:27;6.43;;;3.53;;
71207;SDS011;58938;49.868;8.646;2023-12-20T05:15:53;8.20;;;4.20;;
71207;SDS011;58938;49.868;8.646;2023-12-20T05:18:19;7.97;;;4.28;;
71207;SDS011;58938;49.868;8.646;2023-12-20T05:20:45;7.32;;;3.65;;
71207;SDS011;58938;49.868;8.646;2023-12-20T05:23:11;6.15;;;3.60;;
71207;SDS011;58938;49.868;8.646;2023-12-20T05:25:38;8.35;;;4.43;;
71207;SDS011;58938;49.868;8.646;2023-12-20T05:28:04;9.63;;;4.83;;
71207;SDS011;58938;49.868;8.646;2023-12-20T05:30:30;8.32;;;4.03;;
71207;SDS011;58938;49.868;8.646;2023-12-20T05:32:56;6.97;;;4.07;;
71207;SDS011;58938;49.868;8.646;2023-12-20T05:35:22;6.95;;;3.80;;
71207;SDS011;58938;49.868;8.646;2023-12-20T05:37:48;6.03;;;3.67;;
71207;SDS011;58938;49.868;8.646;2023-12-20T05:40:14;7.13;;;3.90;;
71207;SDS011;58938;49.868;8.646;2023-12-20T05:42:40;6.78;;;3.65;;
71207;SDS011;58938;49.868;8.646;2023-12-20T05:45:06;6.15;;;3.15;;
71207;SDS011;58938;49.868;8.646;2023-12-20T05:47:32;8.57;;;3.83;;
71207;SDS011;58938;49.868;8.646;2023-12-20T05:49:58;6.03;;;3.20;;
71207;SDS011;58938;49.868;8.646;2023-12-20T05:52:24;4.40;;;2.55;;
71207;SDS011;58938;49.868;8.646;2023-12-20T05:54:50;4.10;;;2.40;;
71207;SDS011;58938;49.868;8.646;2023-12-20T05:57:17;8.00;;;3.53;;
71207;SDS011;58938;49.868;8.646;2023-12-20T05:59:43;7.40;;;3.30;;
71207;SDS011;58938;49.868;8.646;2023-12-20T06:02:09;6.93;;;3.53;;
71207;SDS011;58938;49.868;8.646;2023-12-20T06:04:34;5.10;;;3.30;;
71207;SDS011;58938;49.868;8.646;2023-12-20T06:07:00;5.37;;;2.60;;
71207;SDS011;58938;49.868;8.646;2023-12-20T06:09:27;4.90;;;2.42;;
71207;SDS011;58938;49.868;8.646;2023-12-20T06:11:53;5.90;;;3.05;;
71207;SDS011;58938;49.868;8.646;2023-12-20T06:14:19;5.80;;;3.22;;
71207;SDS011;58938;49.868;8.646;2023-12-20T06:16:45;7.18;;;3.40;;
71207;SDS011;58938;49.868;8.646;2023-12-20T06:19:11;6.43;;;3.57;;
71207;SDS011;58938;49.868;8.646;2023-12-20T06:21:37;7.90;;;2.90;;
71207;SDS011;58938;49.868;8.646;2023-12-20T06:24:03;6.80;;;3.83;;
71207;SDS011;58938;49.868;8.646;2023-12-20T06:26:29;6.15;;;3.53;;
71207;SDS011;58938;49.868;8.646;2023-12-20T06:28:55;6.20;;;3.30;;
71207;SDS011;58938;49.868;8.646;2023-12-20T06:31:21;7.07;;;3.60;;
71207;SDS011;58938;49.868;8.646;2023-12-20T06:33:47;6.40;;;2.83;;
71207;SDS011;58938;49.868;8.646;2023-12-20T06:36:22;5.50;;;3.05;;
71207;SDS011;58938;49.868;8.646;2023-12-20T06:38:48;6.97;;;2.80;;
71207;SDS011;58938;49.868;8.646;2023-12-20T06:41:14;8.25;;;3.42;;
71207;SDS011;58938;49.868;8.646;2023-12-20T06:43:41;6.57;;;2.50;;
71207;SDS011;58938;49.868;8.646;2023-12-20T06:46:07;5.75;;;2.90;;
71207;SDS011;58938;49.868;8.646;2023-12-20T06:48:33;8.00;;;3.10;;
71207;SDS011;58938;49.868;8.646;2023-12-20T06:51:00;5.97;;;3.10;;
71207;SDS011;58938;49.868;8.646;2023-12-20T06:53:29;10.48;;;3.40;;
71207;SDS011;58938;49.868;8.646;2023-12-20T06:55:55;6.68;;;3.10;;
71207;SDS011;58938;49.868;8.646;2023-12-20T06:58:21;8.25;;;3.50;;
71207;SDS011;58938;49.868;8.646;2023-12-20T07:00:47;7.43;;;3.13;;
71207;SDS011;58938;49.868;8.646;2023-12-20T07:03:13;11.73;;;3.53;;
71207;SDS011;58938;49.868;8.646;2023-12-20T07:05:39;7.47;;;4.18;;
71207;SDS011;58938;49.868;8.646;2023-12-20T07:08:06;10.90;;;3.30;;
71207;SDS011;58938;49.868;8.646;2023-12-20T07:10:32;12.10;;;3.83;;
71207;SDS011;58938;49.868;8.646;2023-12-20T07:12:58;7.22;;;3.78;;
71207;SDS011;58938;49.868;8.646;2023-12-20T07:15:23;7.15;;;3.40;;
71207;SDS011;58938;49.868;8.646;2023-12-20T07:17:49;6.85;;;3.75;;
71207;SDS011;58938;49.868;8.646;2023-12-20T07:20:15;6.32;;;3.75;;
71207;SDS011;58938;49.868;8.646;2023-12-20T07:22:42;8.57;;;3.42;;
71207;SDS011;58938;49.868;8.646;2023-12-20T07:25:08;6.93;;;3.83;;
71207;SDS011;58938;49.868;8.646;2023-12-20T07:27:34;6.68;;;3.65;;
71207;SDS011;58938;49.868;8.646;2023-12-20T07:30:00;7.67;;;4.40;;
71207;SDS011;58938;49.868;8.646;2023-12-20T07:32:26;6.37;;;3.67;;
71207;SDS011;58938;49.868;8.646;2023-12-20T07:34:52;7.57;;;4.18;;
71207;SDS011;58938;49.868;8.646;2023-12-20T07:37:18;6.75;;;3.75;;
71207;SDS011;58938;49.868;8.646;2023-12-20T07:39:44;6.05;;;3.67;;
71207;SDS011;58938;49.868;8.646;2023-12-20T07:42:10;5.90;;;3.20;;
71207;SDS011;58938;49.868;8.646;2023-12-20T07:44:36;8.10;;;3.45;;
71207;SDS011;58938;49.868;8.646;2023-12-20T07:47:02;8.15;;;3.42;;
71207;SDS011;58938;49.868;8.646;2023-12-20T07:49:28;11.75;;;4.53;;
71207;SDS011;58938;49.868;8.646;2023-12-20T07:51:54;8.77;;;3.67;;
71207;SDS011;58938;49.868;8.646;2023-12-20T07:54:20;10.25;;;4.05;;
71207;SDS011;58938;49.868;8.646;2023-12-20T07:56:46;9.52;;;4.50;;
71207;SDS011;58938;49.868;8.646;2023-12-20T07:59:12;9.18;;;3.80;;
71207;SDS011;58938;49.868;8.646;2023-12-20T08:01:38;13.80;;;4.17;;
71207;SDS011;58938;49.868;8.646;2023-12-20T08:04:04;9.43;;;3.50;;
71207;SDS011;58938;49.868;8.646;2023-12-20T08:06:30;10.65;;;4.13;;
71207;SDS011;58938;49.868;8.646;2023-12-20T08:08:56;7.18;;;3.63;;
71207;SDS011;58938;49.868;8.646;2023-12-20T08:11:22;7.97;;;3.70;;
71207;SDS011;58938;49.868;8.646;2023-12-20T08:13:48;7.53;;;3.40;;
71207;SDS011;58938;49.868;8.646;2023-12-20T08:16:14;11.90;;;4.18;;
71207;SDS011;58938;49.868;8.646;2023-12-20T08:18:42;9.40;;;4.05;;
71207;SDS011;58938;49.868;8.646;2023-12-20T08:21:08;7.90;;;3.73;;
71207;SDS011;58938;49.868;8.646;2023-12-20T08:23:34;8.75;;;3.38;;
71207;SDS011;58938;49.868;8.646;2023-12-20T08:26:06;9.77;;;4.40;;
71207;SDS011;58938;49.868;8.646;2023-12-20T08:28:32;7.53;;;3.60;;
71207;SDS011;58938;49.868;8.646;2023-12-20T08:30:59;7.90;;;4.18;;
71207;SDS011;58938;49.868;8.646;2023-12-20T08:33:24;11.20;;;3.90;;
71207;SDS011;58938;49.868;8.646;2023-12-20T08:35:50;7.13;;;3.33;;
71207;SDS011;58938;49.868;8.646;2023-12-20T08:38:16;7.65;;;4.55;;
71207;SDS011;58938;49.868;8.646;2023-12-20T08:40:43;6.90;;;3.63;;
71207;SDS011;58938;49.868;8.646;2023-12-20T08:43:09;8.33;;;3.83;;
71207;SDS011;58938;49.868;8.646;2023-12-20T08:45:35;8.45;;;4.15;;
71207;SDS011;58938;49.868;8.646;2023-12-20T08:48:01;10.18;;;4.20;;
71207;SDS011;58938;49.868;8.646;2023-12-20T08:50:28;8.77;;;4.05;;
71207;SDS011;58938;49.868;8.646;2023-12-20T08:52:54;8.02;;;3.78;;
71207;SDS011;58938;49.868;8.646;2023-12-20T08:55:20;9.35;;;4.38;;
71207;SDS011;58938;49.868;8.646;2023-12-20T08:57:46;8.18;;;3.47;;
71207;SDS011;58938;49.868;8.646;2023-12-20T09:00:12;9.63;;;4.17;;
71207;SDS011;58938;49.868;8.646;2023-12-20T09:02:38;9.80;;;4.22;;
71207;SDS011;58938;49.868;8.646;2023-12-20T09:05:04;9.15;;;4.45;;
71207;SDS011;58938;49.868;8.646;2023-12-20T09:07:31;10.77;;;4.47;;
71207;SDS011;58938;49.868;8.646;2023-12-20T09:09:57;9.85;;;4.28;;
71207;SDS011;58938;49.868;8.646;2023-12-20T09:12:23;8.75;;;3.30;;
71207;SDS011;58938;49.868;8.646;2023-12-20T09:14:50;7.25;;;3.45;;
71207;SDS011;58938;49.868;8.646;2023-12-20T09:17:16;7.50;;;4.20;;
71207;SDS011;58938;49.868;8.646;2023-12-20T09:19:43;9.88;;;3.95;;
71207;SDS011;58938;49.868;8.646;2023-12-20T09:22:09;9.87;;;4.27;;
71207;SDS011;58938;49.868;8.646;2023-12-20T09:24:35;8.75;;;4.03;;
71207;SDS011;58938;49.868;8.646;2023-12-20T09:27:01;9.07;;;3.35;;
71207;SDS011;58938;49.868;8.646;2023-12-20T09:29:28;10.75;;;4.32;;
71207;SDS011;58938;49.868;8.646;2023-12-20T09:31:54;8.70;;;3.95;;
71207;SDS011;58938;49.868;8.646;2023-12-20T09:34:22;7.27;;;3.73;;
71207;SDS011;58938;49.868;8.646;2023-12-20T09:36:48;7.95;;;3.58;;
71207;SDS011;58938;49.868;8.646;2023-12-20T09:39:14;8.40;;;3.60;;
71207;SDS011;58938;49.868;8.646;2023-12-20T09:41:42;8.40;;;4.10;;
71207;SDS011;58938;49.868;8.646;2023-12-20T09:44:10;8.70;;;4.13;;
71207;SDS011;58938;49.868;8.646;2023-12-20T09:46:38;10.45;;;4.30;;
71207;SDS011;58938;49.868;8.646;2023-12-20T09:49:06;6.85;;;3.42;;
71207;SDS011;58938;49.868;8.646;2023-12-20T09:51:32;9.20;;;4.40;;
71207;SDS011;58938;49.868;8.646;2023-12-20T09:53:59;9.20;;;3.88;;
71207;SDS011;58938;49.868;8.646;2023-12-20T09:56:26;7.80;;;3.80;;
71207;SDS011;58938;49.868;8.646;2023-12-20T09:58:52;8.60;;;3.85;;
71207;SDS011;58938;49.868;8.646;2023-12-20T10:01:19;8.25;;;3.95;;
71207;SDS011;58938;49.868;8.646;2023-12-20T10:03:45;11.98;;;4.50;;
71207;SDS011;58938;49.868;8.646;2023-12-20T10:06:11;9.97;;;4.60;;
71207;SDS011;58938;49.868;8.646;2023-12-20T10:08:38;10.18;;;3.83;;
71207;SDS011;58938;49.868;8.646;2023-12-20T10:11:04;10.75;;;3.78;;
71207;SDS011;58938;49.868;8.646;2023-12-20T10:13:30;8.05;;;3.90;;
71207;SDS011;58938;49.868;8.646;2023-12-20T10:15:56;8.97;;;3.63;;
71207;SDS011;58938;49.868;8.646;2023-12-20T10:18:22;11.63;;;3.97;;
71207;SDS011;58938;49.868;8.646;2023-12-20T10:20:48;6.20;;;3.38;;
71207;SDS011;58938;49.868;8.646;2023-12-20T10:23:15;10.02;;;3.15;;
71207;SDS011;58938;49.868;8.646;2023-12-20T10:25:42;9.38;;;3.78;;
71207;SDS011;58938;49.868;8.646;2023-12-20T10:28:12;8.13;;;2.97;;
71207;SDS011;58938;49.868;8.646;2023-12-20T10:30:39;8.32;;;3.13;;
71207;SDS011;58938;49.868;8.646;2023-12-20T10:33:05;9.57;;;3.28;;
71207;SDS011;58938;49.868;8.646;2023-12-20T10:35:32;6.22;;;3.03;;
71207;SDS011;58938;49.868;8.646;2023-12-20T10:37:58;6.78;;;3.30;;
71207;SDS011;58938;49.868;8.646;2023-12-20T10:40:28;9.33;;;3.00;;
71207;SDS011;58938;49.868;8.646;2023-12-20T10:42:55;6.80;;;2.72;;
71207;SDS011;58938;49.868;8.646;2023-12-20T10:45:22;7.50;;;3.38;;
71207;SDS011;58938;49.868;8.646;2023-12-20T10:47:48;6.40;;;2.92;;
71207;SDS011;58938;49.868;8.646;2023-12-20T10:50:15;6.40;;;2.80;;
71207;SDS011;58938;49.868;8.646;2023-12-20T10:52:41;6.50;;;2.73;;
71207;SDS011;58938;49.868;8.646;2023-12-20T10:55:08;12.05;;;3.65;;
71207;SDS011;58938;49.868;8.646;2023-12-20T10:57:34;9.43;;;3.20;;
71207;SDS011;58938;49.868;8.646;2023-12-20T11:00:02;14.55;;;2.40;;
71207;SDS011;58938;49.868;8.646;2023-12-20T11:02:29;11.02;;;4.00;;
71207;SDS011;58938;49.868;8.646;2023-12-20T11:05:00;6.23;;;2.67;;
71207;SDS011;58938;49.868;8.646;2023-12-20T11:07:36;8.75;;;3.03;;
71207;SDS011;58938;49.868;8.646;2023-12-20T11:10:10;8.82;;;2.97;;
71207;SDS011;58938;49.868;8.646;2023-12-20T11:12:42;8.48;;;3.00;;
71207;SDS011;58938;49.868;8.646;2023-12-20T11:15:10;10.82;;;3.00;;
71207;SDS011;58938;49.868;8.646;2023-12-20T11:17:38;7.80;;;2.73;;
71207;SDS011;58938;49.868;8.646;2023-12-20T11:20:06;7.05;;;2.65;;
71207;SDS011;58938;49.868;8.646;2023-12-20T11:22:32;7.70;;;3.40;;
71207;SDS011;58938;49.868;8.646;2023-12-20T11:25:05;4.82;;;2.38;;
71207;SDS011;58938;49.868;8.646;2023-12-20T11:27:33;11.13;;;3.40;;
71207;SDS011;58938;49.868;8.646;2023-12-20T11:29:59;6.90;;;2.70;;
71207;SDS011;58938;49.868;8.646;2023-12-20T11:35:17;10.60;;;3.22;;
71207;SDS011;58938;49.868;8.646;2023-12-20T11:37:44;8.45;;;3.47;;
71207;SDS011;58938;49.868;8.646;2023-12-20T11:40:15;10.73;;;3.78;;
71207;SDS011;58938;49.868;8.646;2023-12-20T11:42:42;8.03;;;3.33;;
71207;SDS011;58938;49.868;8.646;2023-12-20T11:45:13;7.40;;;3.72;;
71207;SDS011;58938;49.868;8.646;2023-12-20T11:47:45;8.70;;;3.45;;
71207;SDS011;58938;49.868;8.646;2023-12-20T11:50:11;9.43;;;3.20;;
71207;SDS011;58938;49.868;8.646;2023-12-20T11:52:37;11.27;;;3.72;;
71207;SDS011;58938;49.868;8.646;2023-12-20T11:55:04;8.33;;;2.83;;
71207;SDS011;58938;49.868;8.646;2023-12-20T11:57:30;9.52;;;2.97;;
71207;SDS011;58938;49.868;8.646;2023-12-20T11:59:56;6.72;;;4.07;;
71207;SDS011;58938;49.868;8.646;2023-12-20T12:02:22;9.77;;;4.32;;
71207;SDS011;58938;49.868;8.646;2023-12-20T12:04:49;10.07;;;3.08;;
71207;SDS011;58938;49.868;8.646;2023-12-20T12:07:17;8.53;;;2.97;;
71207;SDS011;58938;49.868;8.646;2023-12-20T12:09:44;9.57;;;2.92;;
71207;SDS011;58938;49.868;8.646;2023-12-20T12:12:10;9.32;;;3.67;;
71207;SDS011;58938;49.868;8.646;2023-12-20T12:14:37;13.55;;;5.32;;
71207;SDS011;58938;49.868;8.646;2023-12-20T12:17:03;9.85;;;4.20;;
71207;SDS011;58938;49.868;8.646;2023-12-20T12:19:29;13.30;;;3.70;;
71207;SDS011;58938;49.868;8.646;2023-12-20T12:22:13;9.35;;;3.40;;
71207;SDS011;58938;49.868;8.646;2023-12-20T12:24:40;7.05;;;2.90;;
71207;SDS011;58938;49.868;8.646;2023-12-20T12:27:06;12.63;;;3.58;;
71207;SDS011;58938;49.868;8.646;2023-12-20T12:29:33;10.27;;;4.05;;
71207;SDS011;58938;49.868;8.646;2023-12-20T12:31:59;8.47;;;3.90;;
71207;SDS011;58938;49.868;8.646;2023-12-20T12:34:28;13.95;;;4.45;;
71207;SDS011;58938;49.868;8.646;2023-12-20T12:36:54;13.20;;;3.92;;
71207;SDS011;58938;49.868;8.646;2023-12-20T12:39:20;8.52;;;3.67;;
71207;SDS011;58938;49.868;8.646;2023-12-20T12:41:46;9.60;;;4.53;;
71207;SDS011;58938;49.868;8.646;2023-12-20T12:44:12;10.10;;;4.15;;
71207;SDS011;58938;49.868;8.646;2023-12-20T12:46:38;10.75;;;4.30;;
71207;SDS011;58938;49.868;8.646;2023-12-20T12:49:04;9.93;;;4.47;;
71207;SDS011;58938;49.868;8.646;2023-12-20T12:51:30;10.98;;;4.32;;
71207;SDS011;58938;49.868;8.646;2023-12-20T12:53:56;9.57;;;4.00;;
71207;SDS011;58938;49.868;8.646;2023-12-20T12:56:22;9.63;;;4.13;;
71207;SDS011;58938;49.868;8.646;2023-12-20T12:58:48;8.77;;;3.72;;
71207;SDS011;58938;49.868;8.646;2023-12-20T13:01:14;10.23;;;4.28;;
71207;SDS011;58938;49.868;8.646;2023-12-20T13:03:40;8.83;;;2.97;;
71207;SDS011;58938;49.868;8.646;2023-12-20T13:06:06;10.82;;;3.83;;
71207;SDS011;58938;49.868;8.646;2023-12-20T13:08:34;6.88;;;3.40;;
71207;SDS011;58938;49.868;8.646;2023-12-20T13:11:00;8.70;;;3.42;;
71207;SDS011;58938;49.868;8.646;2023-12-20T13:13:29;6.30;;;3.00;;
71207;SDS011;58938;49.868;8.646;2023-12-20T13:15:55;6.88;;;3.25;;
71207;SDS011;58938;49.868;8.646;2023-12-20T13:18:21;12.50;;;3.60;;
71207;SDS011;58938;49.868;8.646;2023-12-20T13:20:47;16.63;;;3.90;;
71207;SDS011;58938;49.868;8.646;2023-12-20T13:23:14;10.82;;;3.92;;
71207;SDS011;58938;49.868;8.646;2023-12-20T13:25:40;6.27;;;3.77;;
71207;SDS011;58938;49.868;8.646;2023-12-20T13:28:06;10.95;;;4.43;;
71207;SDS011;58938;49.868;8.646;2023-12-20T13:30:33;11.77;;;3.92;;
71207;SDS011;58938;49.868;8.646;2023-12-20T13:32:59;8.55;;;3.20;;
71207;SDS011;58938;49.868;8.646;2023-12-20T13:35:25;6.53;;;3.10;;
71207;SDS011;58938;49.868;8.646;2023-12-20T13:37:51;9.93;;;3.53;;
71207;SDS011;58938;49.868;8.646;2023-12-20T13:40:18;10.65;;;4.13;;
71207;SDS011;58938;49.868;8.646;2023-12-20T13:42:44;6.70;;;2.95;;
71207;SDS011;58938;49.868;8.646;2023-12-20T13:45:10;7.82;;;3.17;;
71207;SDS011;58938;49.868;8.646;2023-12-20T13:47:36;10.47;;;3.67;;
71207;SDS011;58938;49.868;8.646;2023-12-20T13:50:03;9.75;;;3.08;;
71207;SDS011;58938;49.868;8.646;2023-12-20T13:52:30;12.27;;;3.42;;
71207;SDS011;58938;49.868;8.646;2023-12-20T13:54:56;9.02;;;2.88;;
71207;SDS011;58938;49.868;8.646;2023-12-20T13:57:22;9.63;;;3.93;;
71207;SDS011;58938;49.868;8.646;2023-12-20T13:59:48;12.05;;;3.85;;
71207;SDS011;58938;49.868;8.646;2023-12-20T14:02:14;11.85;;;3.80;;
71207;SDS011;58938;49.868;8.646;2023-12-20T14:04:41;9.57;;;2.90;;
71207;SDS011;58938;49.868;8.646;2023-12-20T14:07:07;12.20;;;3.78;;
71207;SDS011;58938;49.868;8.646;2023-12-20T14:09:34;10.25;;;3.00;;
71207;SDS011;58938;49.868;8.646;2023-12-20T14:12:00;6.75;;;3.22;;
71207;SDS011;58938;49.868;8.646;2023-12-20T14:14:26;10.95;;;3.30;;
71207;SDS011;58938;49.868;8.646;2023-12-20T14:16:52;6.80;;;3.10;;
71207;SDS011;58938;49.868;8.646;2023-12-20T14:19:18;3.78;;;2.13;;
71207;SDS011;58938;49.868;8.646;2023-12-20T14:21:44;4.95;;;2.50;;
71207;SDS011;58938;49.868;8.646;2023-12-20T14:24:13;12.13;;;3.00;;
71207;SDS011;58938;49.868;8.646;2023-12-20T14:26:40;6.57;;;1.83;;
71207;SDS011;58938;49.868;8.646;2023-12-20T14:29:06;7.03;;;2.42;;
71207;SDS011;58938;49.868;8.646;2023-12-20T14:31:32;7.85;;;2.67;;
71207;SDS011;58938;49.868;8.646;2023-12-20T14:33:58;6.88;;;3.20;;
71207;SDS011;58938;49.868;8.646;2023-12-20T14:36:25;5.37;;;2.27;;
71207;SDS011;58938;49.868;8.646;2023-12-20T14:38:51;6.50;;;2.60;;
71207;SDS011;58938;49.868;8.646;2023-12-20T14:41:17;8.90;;;2.63;;
71207;SDS011;58938;49.868;8.646;2023-12-20T14:43:44;4.43;;;1.73;;